Time;durP1;ratioP1;P1;durP2;ratioP2;P2;SDS_P1;SDS_P2;PMS_P1;PMS_P2;Temp;Humidity;BMP_temperature;BMP_pressure;BME280_temperature;BME280_humidity;BME280_pressure;Samples;Min_cycle;Max_cycle;Signal;HPM_P1;HPM_P2
2022/04/05 00:00:32;;;;;;;10.93;6.20;;;;;;;-145.69;97.73;72339.72;5073716;28;20207;-76
2022/04/05 00:02:58;;;;;;;9.82;5.47;;;;;;;-145.69;98.19;72345.69;5073123;28;20381;-75
2022/04/05 00:05:25;;;;;;;10.37;5.27;;;;;;;-145.69;97.77;72335.75;5073301;28;20202;-75
2022/04/05 00:07:52;;;;;;;11.53;5.97;;;;;;;-145.69;96.60;72325.81;5073067;28;20570;-75
2022/04/05 00:10:22;;;;;;;12.57;5.43;;;;;;;-145.69;96.85;72325.81;5069673;28;20203;-76
2022/04/05 00:12:48;;;;;;;12.07;5.90;;;;;;;-145.69;97.30;72321.81;5073580;28;20258;-76
2022/04/05 00:15:15;;;;;;;9.77;5.30;;;;;;;-145.69;97.85;72329.78;5073502;28;20230;-76
2022/04/05 00:17:42;;;;;;;11.83;6.03;;;;;;;-145.69;96.98;72325.81;5073138;28;20768;-76
2022/04/05 00:20:14;;;;;;;11.27;5.97;;;;;;;-145.69;98.46;72327.78;5073314;28;20233;-76
2022/04/05 00:22:41;;;;;;;12.73;5.40;;;;;;;-145.69;99.75;72327.78;5073290;28;20259;-76
2022/04/05 00:25:13;;;;;;;11.53;5.50;;;;;;;-145.69;99.25;72329.78;5073411;28;20260;-76
2022/04/05 00:27:41;;;;;;;12.70;5.70;;;;;;;-145.69;100.00;72319.81;5073341;28;20202;-76
2022/04/05 00:30:11;;;;;;;12.40;6.20;;;;;;;-145.69;100.00;72321.81;5073099;28;20199;-76
2022/04/05 00:32:37;;;;;;;9.53;5.60;;;;;;;-145.69;99.61;72313.84;5072810;28;20712;-76
2022/04/05 00:35:05;;;;;;;11.30;6.00;;;;;;;-145.69;100.00;72315.84;5072936;28;20195;-76
2022/04/05 00:37:31;;;;;;;10.90;6.00;;;;;;;-145.69;100.00;72321.81;5072831;28;20198;-76
2022/04/05 00:39:58;;;;;;;10.87;5.80;;;;;;;-145.69;99.92;72303.91;5072945;28;20673;-76
2022/04/05 00:42:24;;;;;;;10.57;5.60;;;;;;;-145.69;100.00;72307.88;5073127;28;20194;-76
2022/04/05 00:44:52;;;;;;;11.70;5.23;;;;;;;-145.69;98.53;72293.94;5073007;28;20653;-76
2022/04/05 00:47:21;;;;;;;9.60;5.23;;;;;;;-145.69;98.85;72297.94;5072877;28;20199;-76
2022/04/05 00:49:48;;;;;;;14.10;6.17;;;;;;;-145.69;100.00;72299.91;5072866;28;20202;-76
2022/04/05 00:52:19;;;;;;;13.90;5.57;;;;;;;-145.69;100.00;72301.91;5073092;28;20198;-76
2022/04/05 00:54:48;;;;;;;10.43;5.67;;;;;;;-145.69;100.00;72301.91;5072913;28;20222;-76
2022/04/05 00:57:18;;;;;;;11.57;5.80;;;;;;;-145.69;100.00;72297.94;5072821;28;20657;-76
2022/04/05 00:59:47;;;;;;;10.63;5.97;;;;;;;-145.69;100.00;72301.91;5072737;28;20256;-76
2022/04/05 01:02:17;;;;;;;9.50;5.87;;;;;;;-145.69;100.00;72301.91;5072704;28;20206;-76
2022/04/05 01:04:45;;;;;;;10.63;6.13;;;;;;;-145.69;100.00;72297.94;5072678;28;20646;-76
2022/04/05 01:07:18;;;;;;;13.40;6.77;;;;;;;-145.69;100.00;72289.97;5072899;28;20289;-77
2022/04/05 01:09:45;;;;;;;11.30;5.70;;;;;;;-145.69;100.00;72274.06;5072839;28;20210;-76
2022/04/05 01:12:12;;;;;;;11.70;6.23;;;;;;;-145.69;100.00;72276.03;5072864;28;20259;-76
2022/04/05 01:14:40;;;;;;;9.10;5.63;;;;;;;-145.69;100.00;72266.09;5072607;28;20581;-76
2022/04/05 01:17:10;;;;;;;12.17;6.33;;;;;;;-145.69;100.00;72266.09;5072448;28;20281;-76
2022/04/05 01:19:40;;;;;;;10.33;6.23;;;;;;;-145.69;100.00;72266.09;5074935;28;20198;-76
2022/04/05 01:22:10;;;;;;;12.27;5.83;;;;;;;-145.69;100.00;72258.13;5076870;28;20534;-76
2022/04/05 01:24:38;;;;;;;12.73;5.77;;;;;;;-145.69;100.00;72270.06;5076746;28;20199;-76
2022/04/05 01:27:08;;;;;;;11.57;6.20;;;;;;;-145.69;100.00;72266.09;5076562;28;20286;-76
2022/04/05 01:29:37;;;;;;;9.60;5.10;;;;;;;-145.69;100.00;72258.13;5076394;28;20735;-76
2022/04/05 01:32:06;;;;;;;11.43;5.93;;;;;;;-145.69;100.00;72242.22;5076526;28;20205;-76
2022/04/05 01:34:35;;;;;;;9.60;5.40;;;;;;;-145.69;100.00;72254.16;5076103;28;20222;-76
2022/04/05 01:37:04;;;;;;;10.20;5.73;;;;;;;-145.69;100.00;72250.16;5076389;28;20230;-76
2022/04/05 01:39:32;;;;;;;11.40;5.50;;;;;;;-145.69;100.00;72256.13;5076398;28;20244;-76
2022/04/05 01:42:05;;;;;;;11.27;5.97;;;;;;;-145.69;100.00;72252.16;5076184;28;20221;-76
2022/04/05 01:44:34;;;;;;;9.13;5.47;;;;;;;-145.69;100.00;72244.19;5076293;28;20675;-76
2022/04/05 01:47:05;;;;;;;10.40;5.40;;;;;;;-145.69;100.00;72246.19;5075964;28;20199;-76
2022/04/05 01:49:32;;;;;;;11.13;5.60;;;;;;;-145.69;100.00;72246.19;5076000;28;20226;-76
2022/04/05 01:51:58;;;;;;;9.13;5.67;;;;;;;-145.69;99.71;72234.25;5076061;28;20298;-76
2022/04/05 01:54:25;;;;;;;9.40;5.10;;;;;;;-145.69;100.00;72226.28;5075723;28;20284;-76
2022/04/05 01:56:52;;;;;;;10.53;6.17;;;;;;;-145.69;100.00;72230.25;5075945;28;20199;-76
2022/04/05 01:59:25;;;;;;;9.10;5.47;;;;;;;-145.69;99.67;72224.28;5075988;28;20194;-76
2022/04/05 02:01:52;;;;;;;9.57;5.60;;;;;;;-145.69;100.00;72234.25;5076048;28;20199;-76
2022/04/05 02:04:19;;;;;;;12.10;5.43;;;;;;;-145.69;100.00;72222.31;5075958;28;20297;-76
2022/04/05 02:06:47;;;;;;;11.73;5.80;;;;;;;-145.69;99.87;72220.31;5075828;28;20198;-77
2022/04/05 02:09:15;;;;;;;11.17;5.90;;;;;;;-145.69;99.31;72206.38;5075990;28;20225;-76
2022/04/05 02:11:43;;;;;;;8.73;5.33;;;;;;;-145.69;100.00;72218.31;5073597;28;20650;-77
2022/04/05 02:14:12;;;;;;;11.60;5.60;;;;;;;-145.69;97.80;72204.38;5055766;28;20234;-77
2022/04/05 02:16:40;;;;;;;10.00;5.63;;;;;;;-145.69;98.43;72210.38;5055759;28;20207;-76
2022/04/05 02:19:07;;;;;;;11.27;5.50;;;;;;;-145.69;99.49;72222.31;5055498;28;20196;-76
2022/04/05 02:21:34;;;;;;;10.10;5.27;;;;;;;-145.69;99.85;72224.28;5055452;28;20681;-76
2022/04/05 02:24:10;;;;;;;10.33;5.40;;;;;;;-145.69;98.89;72210.38;5055826;28;20233;-76
2022/04/05 02:26:37;;;;;;;9.03;5.33;;;;;;;-145.69;99.41;72220.31;5063030;28;20657;-76
2022/04/05 02:29:04;;;;;;;11.43;5.97;;;;;;;-145.69;98.67;72218.31;5075446;28;20601;-76
2022/04/05 02:31:30;;;;;;;9.27;5.43;;;;;;;-145.69;100.00;72206.38;5075295;28;20195;-76
2022/04/05 02:33:58;;;;;;;9.23;5.67;;;;;;;-145.69;99.53;72190.47;5075188;28;20250;-76
2022/04/05 02:36:25;;;;;;;9.50;5.00;;;;;;;-145.69;99.49;72200.41;5075526;28;20202;-76
2022/04/05 02:38:51;;;;;;;9.17;5.67;;;;;;;-145.69;98.77;72190.47;5075437;28;20218;-76
2022/04/05 02:41:18;;;;;;;9.27;5.40;;;;;;;-145.69;100.00;72194.44;5075311;28;20198;-76
2022/04/05 02:43:45;;;;;;;10.33;5.20;;;;;;;-145.69;100.00;72192.44;5075209;28;20211;-76
2022/04/05 02:46:14;;;;;;;10.27;5.60;;;;;;;-145.69;99.18;72190.47;5075204;28;20234;-76
2022/04/05 02:48:43;;;;;;;9.33;5.37;;;;;;;-145.69;99.98;72188.47;5075055;28;20222;-77
2022/04/05 02:51:12;;;;;;;10.53;5.50;;;;;;;-145.69;100.00;72188.47;5075197;28;20209;-76
2022/04/05 02:53:42;;;;;;;10.67;5.33;;;;;;;-145.69;100.00;72186.47;5074988;28;20235;-76
2022/04/05 02:56:09;;;;;;;9.43;5.33;;;;;;;-145.69;100.00;72182.50;5075005;28;20205;-76
2022/04/05 02:58:39;;;;;;;9.60;5.40;;;;;;;-145.69;99.89;72174.53;5074928;28;20209;-76
2022/04/05 03:01:08;;;;;;;9.83;5.17;;;;;;;-145.69;99.18;72162.59;5074746;28;20260;-76
2022/04/05 03:03:34;;;;;;;11.43;5.47;;;;;;;-145.69;100.00;72162.59;5074919;28;20210;-76
2022/04/05 03:06:03;;;;;;;10.70;5.53;;;;;;;-145.69;99.03;72154.63;5074881;28;20203;-76
2022/04/05 03:08:31;;;;;;;20.57;8.70;;;;;;;-145.69;98.48;72152.66;5074779;28;20207;-76
2022/04/05 03:10:57;;;;;;;20.40;9.13;;;;;;;-145.69;97.95;72156.63;5074644;28;20281;-76
2022/04/05 03:13:26;;;;;;;11.80;5.67;;;;;;;-145.69;98.79;72140.69;5074462;28;20203;-77
2022/04/05 03:15:53;;;;;;;11.13;5.80;;;;;;;-145.69;98.97;72140.69;5074813;28;20202;-76
2022/04/05 03:18:20;;;;;;;8.50;5.20;;;;;;;-145.69;97.64;72130.75;5074303;28;20713;-76
2022/04/05 03:20:52;;;;;;;11.20;5.30;;;;;;;-145.69;98.18;72130.75;5074404;28;20662;-76
2022/04/05 03:23:20;;;;;;;11.27;5.13;;;;;;;-145.69;99.05;72142.69;5074429;28;20297;-76
2022/04/05 03:25:48;;;;;;;9.50;5.17;;;;;;;-145.69;99.29;72134.72;5074005;28;20209;-75
2022/04/05 03:28:14;;;;;;;9.37;5.23;;;;;;;-145.69;98.25;72134.72;5074213;28;20199;-76
2022/04/05 03:30:41;;;;;;;9.60;4.77;;;;;;;-145.69;97.22;72092.94;5074430;28;20195;-76
2022/04/05 03:33:07;;;;;;;10.97;5.03;;;;;;;-145.69;96.84;72075.03;5074067;28;20709;-76
2022/04/05 03:35:34;;;;;;;8.90;4.33;;;;;;;-145.69;95.59;72086.97;5074013;28;20689;-76
2022/04/05 03:38:01;;;;;;;8.13;4.67;;;;;;;-145.69;96.75;72110.84;5073829;28;20195;-76
2022/04/05 03:40:31;;;;;;;9.13;5.07;;;;;;;-145.69;95.66;72118.81;5074168;28;20202;-76
2022/04/05 03:42:59;;;;;;;7.83;4.80;;;;;;;-145.69;95.89;72116.81;5073192;28;20199;-76
2022/04/05 03:45:30;;;;;;;6.93;4.77;;;;;;;-145.69;96.74;72120.81;5073785;28;20215;-75
2022/04/05 03:47:57;;;;;;;8.17;4.30;;;;;;;-145.69;94.09;72082.97;5074183;28;20217;-76
2022/04/05 03:50:23;;;;;;;10.33;4.80;;;;;;;-145.69;95.60;72096.91;5073898;28;20206;-76
2022/04/05 03:52:51;;;;;;;9.73;4.73;;;;;;;-145.69;95.36;72094.94;5073720;28;20206;-76
2022/04/05 03:55:17;;;;;;;9.17;4.90;;;;;;;-145.69;95.95;72104.88;5073578;28;20341;-76
2022/04/05 03:57:46;;;;;;;9.03;5.30;;;;;;;-145.69;96.48;72092.94;5073574;28;20206;-76
2022/04/05 04:00:15;;;;;;;10.73;4.93;;;;;;;-145.69;96.80;72106.88;5073586;28;20264;-76
2022/04/05 04:02:42;;;;;;;10.43;4.87;;;;;;;-145.69;97.01;72110.84;5073545;28;20217;-76
2022/04/05 04:05:16;;;;;;;9.73;4.43;;;;;;;-145.69;96.86;72110.84;5073582;28;20198;-76
2022/04/05 04:07:43;;;;;;;11.30;5.27;;;;;;;-145.69;98.01;72116.81;5073144;28;20236;-76
2022/04/05 04:10:10;;;;;;;8.93;4.57;;;;;;;-145.69;95.80;72108.84;5073747;28;20328;-76
2022/04/05 04:12:37;;;;;;;10.33;4.90;;;;;;;-145.69;96.73;72116.81;5073540;28;20205;-76
2022/04/05 04:15:03;;;;;;;12.53;4.60;;;;;;;-145.69;96.84;72118.81;5056129;28;20284;-76
2022/04/05 04:17:31;;;;;;;9.33;4.93;;;;;;;-145.69;96.01;72108.84;5053252;28;20235;-76
2022/04/05 04:19:58;;;;;;;9.23;5.10;;;;;;;-145.69;96.66;72114.81;5053138;28;20204;-75
2022/04/05 04:22:26;;;;;;;10.17;4.37;;;;;;;-145.69;96.44;72110.84;5053214;28;20210;-75
2022/04/05 04:25:00;;;;;;;9.13;4.90;;;;;;;-145.69;96.69;72124.78;5053423;28;20203;-76
2022/04/05 04:27:27;;;;;;;8.07;4.87;;;;;;;-145.69;96.76;72114.81;5053366;28;20199;-76
2022/04/05 04:29:53;;;;;;;10.50;5.30;;;;;;;-145.69;96.62;72106.88;5053391;28;20210;-76
2022/04/05 04:32:20;;;;;;;7.83;4.67;;;;;;;-145.69;96.11;72100.91;5053321;28;20199;-76
2022/04/05 04:34:48;;;;;;;9.57;5.03;;;;;;;-145.69;96.79;72106.88;5052897;28;20629;-76
2022/04/05 04:37:15;;;;;;;8.37;5.13;;;;;;;-145.69;97.74;72100.91;5053116;28;20672;-76
2022/04/05 04:39:42;;;;;;;11.07;4.40;;;;;;;-145.69;97.64;72108.84;5072974;28;20238;-76
2022/04/05 04:42:08;;;;;;;7.87;4.60;;;;;;;-145.69;96.72;72090.94;5073246;28;20543;-76
2022/04/05 04:44:35;;;;;;;9.13;4.07;;;;;;;-145.69;95.87;72075.03;5073013;28;20289;-76
2022/04/05 04:47:02;;;;;;;8.70;4.63;;;;;;;-145.69;95.59;72073.03;5073045;28;20230;-76
2022/04/05 04:49:29;;;;;;;6.37;3.87;;;;;;;-145.69;95.85;72079.00;5072837;28;20202;-76
2022/04/05 04:51:57;;;;;;;7.90;4.60;;;;;;;-145.69;94.81;72071.03;5073301;28;20195;-76
2022/04/05 04:54:23;;;;;;;7.00;4.23;;;;;;;-145.69;94.86;72077.00;5072790;28;20223;-76
2022/04/05 04:56:50;;;;;;;7.83;4.47;;;;;;;-145.69;95.05;72079.00;5072774;28;20232;-77
2022/04/05 04:59:16;;;;;;;8.07;4.50;;;;;;;-145.69;95.39;72071.03;5072932;28;20221;-76
2022/04/05 05:01:46;;;;;;;6.87;3.93;;;;;;;-145.69;96.19;72090.94;5072838;28;20194;-77
2022/04/05 05:04:12;;;;;;;10.57;4.80;;;;;;;-145.69;96.89;72084.97;5072851;28;20194;-76
2022/04/05 05:06:39;;;;;;;6.53;3.90;;;;;;;-145.69;96.28;72077.00;5072963;28;20205;-77
2022/04/05 05:09:07;;;;;;;6.80;3.60;;;;;;;-145.69;96.83;72067.06;5072748;28;20199;-77
2022/04/05 05:11:33;;;;;;;7.10;4.47;;;;;;;-145.69;98.94;72065.06;5072945;28;20203;-76
2022/04/05 05:14:00;;;;;;;8.13;4.03;;;;;;;-145.69;98.03;72067.06;5072669;28;20222;-76
2022/04/05 05:16:29;;;;;;;10.07;4.10;;;;;;;-145.69;98.52;72059.09;5072771;28;20226;-77
2022/04/05 05:18:55;;;;;;;6.23;3.70;;;;;;;-145.69;97.55;72055.13;5072623;28;20317;-76
2022/04/05 05:21:23;;;;;;;5.20;3.57;;;;;;;-145.69;99.41;72059.09;5072852;28;20256;-76
2022/04/05 05:23:49;;;;;;;8.30;4.23;;;;;;;-145.69;98.67;72069.06;5072783;28;20194;-76
2022/04/05 05:26:17;;;;;;;7.43;4.27;;;;;;;-145.69;96.50;72053.13;5072708;28;20558;-76
2022/04/05 05:28:44;;;;;;;9.57;4.75;;;;;;;-145.69;98.91;72065.06;5071741;28;20442;-76
2022/04/05 05:31:10;;;;;;;8.33;4.40;;;;;;;-145.69;99.88;72082.97;5072400;28;20211;-76
2022/04/05 05:33:37;;;;;;;10.73;4.30;;;;;;;-145.69;97.89;72073.03;5072761;28;20289;-76
2022/04/05 05:36:03;;;;;;;7.10;4.43;;;;;;;-145.69;97.67;72071.03;5072683;28;20227;-75
2022/04/05 05:38:30;;;;;;;9.47;4.83;;;;;;;-145.69;98.79;72075.03;5072306;28;20207;-76
2022/04/05 05:40:56;;;;;;;9.80;3.83;;;;;;;-145.69;98.50;72069.06;5072356;28;20244;-76
2022/04/05 05:43:26;;;;;;;8.97;4.23;;;;;;;-145.69;99.73;72073.03;5072341;28;20558;-76
2022/04/05 05:45:52;;;;;;;9.97;4.10;;;;;;;-145.69;98.96;72075.03;5072411;28;20202;-76
2022/04/05 05:48:22;;;;;;;8.90;4.60;;;;;;;-145.69;100.00;72082.97;5072502;28;20202;-76
2022/04/05 05:50:49;;;;;;;7.40;3.93;;;;;;;-145.69;99.37;72079.00;5072524;28;20206;-76
2022/04/05 05:53:16;;;;;;;6.93;3.93;;;;;;;-145.69;99.78;72075.03;5072376;28;20649;-76
2022/04/05 05:55:44;;;;;;;8.03;4.57;;;;;;;-145.69;100.00;72069.06;5072390;28;20223;-76
2022/04/05 05:58:11;;;;;;;12.10;4.47;;;;;;;-145.69;100.00;72067.06;5072205;28;20642;-76
2022/04/05 06:00:39;;;;;;;7.63;3.90;;;;;;;-145.69;100.00;72051.16;5072245;28;20206;-76
2022/04/05 06:03:06;;;;;;;13.90;4.53;;;;;;;-145.69;100.00;72067.06;5072489;28;20207;-75
2022/04/05 06:05:33;;;;;;;7.13;3.93;;;;;;;-145.69;99.62;72057.13;5074425;28;20245;-76
2022/04/05 06:07:59;;;;;;;10.47;4.23;;;;;;;-145.69;100.00;72043.19;5075662;28;20199;-76
2022/04/05 06:10:28;;;;;;;9.93;4.87;;;;;;;-145.69;100.00;72041.19;5075859;28;20205;-77
2022/04/05 06:12:56;;;;;;;9.17;4.13;;;;;;;-145.69;100.00;72041.19;5075846;28;20217;-76
2022/04/05 06:15:25;;;;;;;6.93;3.87;;;;;;;-145.69;99.78;72045.16;5076044;28;20257;-76
2022/04/05 06:17:54;;;;;;;8.00;3.97;;;;;;;-145.69;100.00;72027.25;5075686;28;20238;-76
2022/04/05 06:20:21;;;;;;;13.47;4.13;;;;;;;-145.69;100.00;72039.19;5075855;28;20203;-76
2022/04/05 06:22:51;;;;;;;8.43;4.43;;;;;;;-145.69;99.75;72023.28;5062949;28;20202;-76
2022/04/05 06:25:19;;;;;;;13.80;6.00;;;;;;;-145.69;100.00;72023.28;5055668;28;20535;-77
2022/04/05 06:27:46;;;;;;;6.33;3.83;;;;;;;-145.69;99.78;72019.31;5055785;28;20203;-76
2022/04/05 06:30:14;;;;;;;9.93;3.10;;;;;;;-145.69;99.36;72015.31;5055782;28;20203;-76
2022/04/05 06:32:41;;;;;;;6.20;3.57;;;;;;;-145.69;98.68;72003.38;5055507;28;20539;-76
2022/04/05 06:35:11;;;;;;;10.60;4.23;;;;;;;-145.69;98.77;71993.44;5055542;28;20625;-76
2022/04/05 06:37:43;;;;;;;7.73;3.83;;;;;;;-145.69;97.77;71979.50;5059179;28;20191;-76
2022/04/05 06:40:10;;;;;;;15.33;6.43;;;;;;;-145.69;98.43;71959.59;5075483;28;20646;-76
2022/04/05 06:42:41;;;;;;;14.77;6.07;;;;;;;-145.69;96.65;71943.69;5075274;28;20666;-76
2022/04/05 06:45:09;;;;;;;15.57;7.43;;;;;;;-145.69;96.76;71923.78;5075440;28;20210;-77
2022/04/05 06:47:37;;;;;;;12.07;4.93;;;;;;;-145.69;97.19;71919.78;5075288;28;20662;-76
2022/04/05 06:50:05;;;;;;;7.13;3.57;;;;;;;-145.69;96.28;71951.63;5075230;28;20260;-77
2022/04/05 06:52:32;;;;;;;8.53;3.93;;;;;;;-145.69;97.88;71947.66;5075244;28;20203;-76
2022/04/05 06:54:59;;;;;;;10.77;4.67;;;;;;;-145.69;97.49;71939.69;5075305;28;20225;-76
2022/04/05 06:57:25;;;;;;;16.77;5.90;;;;;;;-145.69;97.44;71947.66;5075186;28;20203;-77
2022/04/05 06:59:52;;;;;;;11.25;4.88;;;;;;;-145.69;97.12;71951.63;5074019;28;20441;-76
2022/04/05 07:02:18;;;;;;;9.43;4.30;;;;;;;-145.69;95.38;71927.75;5074929;28;20267;-76
2022/04/05 07:04:45;;;;;;;15.07;5.93;;;;;;;-145.69;96.06;71919.78;5074774;28;20604;-77
2022/04/05 07:07:11;;;;;;;8.80;4.10;;;;;;;-145.69;96.57;71929.75;5075022;28;20187;-76
2022/04/05 07:09:39;;;;;;;11.60;4.87;;;;;;;-145.69;96.82;71927.75;5078053;28;20194;-76
2022/04/05 07:12:07;;;;;;;10.43;4.77;;;;;;;-145.69;96.54;71913.81;5074804;28;20201;-76
2022/04/05 07:14:39;;;;;;;9.50;4.47;;;;;;;-145.69;96.18;71895.91;5074635;28;20206;-76
2022/04/05 07:17:06;;;;;;;12.47;4.57;;;;;;;-145.69;97.31;71911.84;5073559;28;20323;-76
2022/04/05 07:19:33;;;;;;;8.70;3.83;;;;;;;-145.69;97.42;71907.84;5074617;28;20232;-76
2022/04/05 07:22:00;;;;;;;8.17;3.90;;;;;;;-145.69;98.43;71907.84;5074610;28;20202;-76
2022/04/05 07:24:27;;;;;;;5.40;2.80;;;;;;;-145.69;97.22;71907.84;5074651;28;20217;-77
2022/04/05 07:26:55;;;;;;;5.73;3.20;;;;;;;-145.69;99.06;71907.84;5074561;28;20210;-77
2022/04/05 07:29:23;;;;;;;7.50;3.37;;;;;;;-145.69;98.03;71907.84;5074264;28;20289;-76
2022/04/05 07:31:50;;;;;;;4.30;3.07;;;;;;;-145.69;98.14;71903.88;5074264;28;20206;-76
2022/04/05 07:34:19;;;;;;;7.83;4.13;;;;;;;-145.69;97.79;71893.91;5074457;28;20195;-76
2022/04/05 07:36:46;;;;;;;5.47;2.70;;;;;;;-145.69;97.42;71876.00;5074313;28;20234;-76
2022/04/05 07:39:12;;;;;;;6.27;3.17;;;;;;;-145.69;97.30;71866.06;5073914;28;20279;-76
2022/04/05 07:41:39;;;;;;;4.23;2.83;;;;;;;-145.69;96.98;71870.03;5074304;28;20199;-76
2022/04/05 07:44:07;;;;;;;6.67;3.03;;;;;;;-145.69;96.55;71854.13;5074088;28;20562;-76
2022/04/05 07:46:35;;;;;;;5.93;3.40;;;;;;;-145.69;95.29;71832.22;5073885;28;20195;-76
2022/04/05 07:49:01;;;;;;;7.07;3.00;;;;;;;-145.69;94.83;71800.38;5073865;28;20555;-76
2022/04/05 07:51:31;;;;;;;8.80;2.90;;;;;;;-145.69;94.97;71836.22;5074090;28;20195;-76
2022/04/05 07:54:00;;;;;;;6.53;3.27;;;;;;;-145.69;96.16;71838.19;5073805;28;20234;-77
2022/04/05 07:56:26;;;;;;;6.30;2.70;;;;;;;-145.69;95.39;71834.22;5073725;28;20693;-76
2022/04/05 07:58:53;;;;;;;5.53;2.90;;;;;;;-145.69;95.59;71828.25;5073656;28;20202;-75
2022/04/05 08:01:21;;;;;;;6.30;2.73;;;;;;;-145.69;96.12;71820.28;5073788;28;20198;-75
2022/04/05 08:03:47;;;;;;;6.57;2.90;;;;;;;-145.69;94.33;71800.38;5073728;28;20198;-75
2022/04/05 08:06:14;;;;;;;6.23;2.53;;;;;;;-145.69;95.60;71806.34;5073703;28;20244;-75
2022/04/05 08:08:41;;;;;;;5.60;3.00;;;;;;;-145.69;93.83;71796.41;5073320;28;20281;-76
2022/04/05 08:11:08;;;;;;;4.27;2.67;;;;;;;-145.69;93.76;71800.38;5073730;28;20199;-76
2022/04/05 08:13:34;;;;;;;5.77;3.17;;;;;;;-145.69;95.15;71782.47;5067056;28;20203;-75
2022/04/05 08:16:01;;;;;;;6.80;2.87;;;;;;;-145.69;94.54;71794.41;5060071;28;20276;-75
2022/04/05 08:18:29;;;;;;;5.60;2.73;;;;;;;-145.69;95.71;71794.41;5073285;28;20230;-77
2022/04/05 08:20:55;;;;;;;6.80;3.07;;;;;;;-145.69;94.41;71808.34;5073359;28;20203;-76
2022/04/05 08:23:22;;;;;;;4.00;3.03;;;;;;;-145.69;95.02;71820.28;5073284;28;20206;-76
2022/04/05 08:25:48;;;;;;;5.90;3.00;;;;;;;-145.69;95.62;71804.38;5073204;28;20788;-75
2022/04/05 08:28:15;;;;;;;6.07;2.97;;;;;;;-145.69;97.43;71764.56;5072834;28;20198;-75
2022/04/05 08:30:42;;;;;;;5.63;3.10;;;;;;;-145.69;96.38;71768.53;5072572;28;20441;-75
2022/04/05 08:33:08;;;;;;;5.80;3.00;;;;;;;-145.69;97.51;71754.63;5073294;28;20218;-76
2022/04/05 08:35:37;;;;;;;5.17;2.43;;;;;;;-145.69;97.58;71764.56;5073181;28;20226;-75
2022/04/05 08:38:04;;;;;;;6.10;2.50;;;;;;;-145.69;97.50;71748.66;5072772;28;20206;-75
2022/04/05 08:40:32;;;;;;;4.90;2.50;;;;;;;-145.69;96.02;71760.59;5072481;28;20199;-76
2022/04/05 08:42:59;;;;;;;5.97;2.70;;;;;;;-145.69;96.22;71744.66;5072944;28;20213;-76
2022/04/05 08:45:27;;;;;;;5.10;3.10;;;;;;;-145.69;96.52;71726.75;5072874;28;20210;-76
2022/04/05 08:47:56;;;;;;;5.10;2.77;;;;;;;-145.69;94.38;71728.75;5073020;28;20221;-75
2022/04/05 08:50:25;;;;;;;3.23;2.30;;;;;;;-145.69;93.79;71704.88;5072903;28;20684;-76
2022/04/05 08:52:55;;;;;;;7.30;2.90;;;;;;;-145.69;93.16;71696.91;5072981;28;20304;-75
2022/04/05 08:55:22;;;;;;;7.57;2.87;;;;;;;-145.69;93.01;71698.91;5072668;28;20234;-76
2022/04/05 08:57:49;;;;;;;8.13;2.60;;;;;;;-145.69;91.32;71682.97;5073094;28;20210;-76
2022/04/05 09:00:22;;;;;;;4.67;2.87;;;;;;;-145.69;91.04;71688.94;5072984;28;20202;-76
2022/04/05 09:02:55;;;;;;;7.73;3.20;;;;;;;-145.69;93.36;71734.72;5073017;28;20195;-76
2022/04/05 09:05:30;;;;;;;5.20;3.03;;;;;;;-145.69;93.47;71702.88;5072828;28;20285;-76
2022/04/05 09:08:12;;;;;;;8.07;3.30;;;;;;;-145.69;91.45;71677.00;5072716;28;20198;-75
2022/04/05 09:10:39;;;;;;;4.77;2.90;;;;;;;-145.69;88.90;71661.09;5072739;28;20248;-76
2022/04/05 09:13:08;;;;;;;6.30;3.00;;;;;;;-145.69;89.03;71621.28;5072844;28;20202;-76
2022/04/05 09:15:36;;;;;;;6.10;2.73;;;;;;;-145.69;88.92;71589.44;5072601;28;20214;-76
2022/04/05 09:18:02;;;;;;;4.97;2.97;;;;;;;-145.69;87.27;71583.47;5072274;28;20723;-76
2022/04/05 09:20:29;;;;;;;8.87;3.10;;;;;;;-145.69;87.21;71577.50;5072957;28;20209;-76
2022/04/05 09:22:56;;;;;;;6.17;2.90;;;;;;;-145.69;85.36;71553.63;5072898;28;20198;-75
2022/04/05 09:25:24;;;;;;;6.40;3.40;;;;;;;-145.69;87.00;71609.34;5072634;28;20616;-76
2022/04/05 09:27:52;;;;;;;6.83;3.40;;;;;;;-145.69;88.04;71615.31;5072540;28;20608;-76
2022/04/05 09:30:22;;;;;;;7.27;3.27;;;;;;;-145.69;88.55;71617.31;5072604;28;20214;-76
2022/04/05 09:32:51;;;;;;;5.53;3.30;;;;;;;-145.69;87.86;71585.47;5072440;28;20198;-75
2022/04/05 09:35:23;;;;;;;4.90;2.97;;;;;;;-145.69;87.62;71585.47;5072739;28;20256;-76
2022/04/05 09:37:52;;;;;;;7.60;2.83;;;;;;;-145.69;89.11;71613.31;5072379;28;20223;-76
2022/04/05 09:40:32;;;;;;;6.03;2.90;;;;;;;-145.69;87.82;71599.41;5074365;28;20203;-76
2022/04/05 09:43:05;;;;;;;5.57;2.87;;;;;;;-145.69;88.52;71639.19;5076489;28;20604;-77
2022/04/05 09:45:51;;;;;;;8.60;3.50;;;;;;;-145.69;92.69;71637.19;5076037;28;20244;-76
2022/04/05 09:48:20;;;;;;;6.50;2.77;;;;;;;-145.69;90.11;71615.31;5076264;28;20667;-76
2022/04/05 09:50:58;;;;;;;5.43;2.90;;;;;;;-145.69;88.70;71597.41;5076333;28;20202;-76
2022/04/05 09:53:25;;;;;;;8.07;2.70;;;;;;;-145.69;88.80;71593.44;5076262;28;20203;-76
2022/04/05 09:56:04;;;;;;;6.03;2.90;;;;;;;-145.69;89.38;71589.44;5076046;28;20225;-76
2022/04/05 09:58:31;;;;;;;2.83;2.20;;;;;;;-145.69;89.84;71601.38;5076253;28;20206;-76
2022/04/05 10:01:07;;;;;;;8.63;3.03;;;;;;;-145.69;88.18;71575.50;5073051;28;20202;-76
2022/04/05 10:03:34;;;;;;;5.63;2.80;;;;;;;-145.69;88.16;71577.50;5063557;28;20199;-75
2022/04/05 10:06:01;;;;;;;7.17;3.27;;;;;;;-145.69;87.67;71541.69;5075533;28;20199;-76
2022/04/05 10:08:31;;;;;;;7.83;2.33;;;;;;;-145.69;91.19;71603.38;5076154;28;20202;-76
2022/04/05 10:10:58;;;;;;;3.87;2.70;;;;;;;-145.69;91.18;71633.22;5076019;28;20199;-77
2022/04/05 10:13:25;;;;;;;3.97;2.83;;;;;;;-145.69;92.10;71615.31;5075880;28;20289;-76
2022/04/05 10:15:53;;;;;;;4.80;2.40;;;;;;;-145.69;90.74;71617.31;5075500;28;20201;-76
2022/04/05 10:18:21;;;;;;;7.43;2.70;;;;;;;-145.69;90.93;71617.31;5075743;28;20567;-76
2022/04/05 10:20:49;;;;;;;4.90;3.20;;;;;;;-145.69;90.28;71605.38;5071914;28;20281;-76
2022/04/05 10:23:18;;;;;;;5.50;3.00;;;;;;;-145.69;88.19;71565.56;5075824;28;20264;-76
2022/04/05 10:25:45;;;;;;;4.57;2.70;;;;;;;-145.69;88.02;71529.75;5075550;28;20285;-76
2022/04/05 10:28:15;;;;;;;5.97;2.37;;;;;;;-145.69;88.61;71533.72;5075751;28;20201;-76
2022/04/05 10:30:48;;;;;;;10.10;3.10;;;;;;;-145.69;87.39;71565.56;5075810;28;20203;-77
2022/04/05 10:33:23;;;;;;;3.93;2.57;;;;;;;-145.69;87.70;71583.47;5075413;28;20194;-76
2022/04/05 10:35:54;;;;;;;5.93;3.30;;;;;;;-145.69;85.92;71553.63;5075251;28;20426;-76
2022/04/05 10:38:31;;;;;;;7.10;3.70;;;;;;;-145.69;88.13;71565.56;5075570;28;20205;-76
2022/04/05 10:41:13;;;;;;;7.97;3.20;;;;;;;-145.69;86.26;71533.72;5075392;28;20289;-76
2022/04/05 10:43:40;;;;;;;8.00;3.20;;;;;;;-145.69;86.24;71529.75;5075204;28;20226;-76
2022/04/05 10:46:09;;;;;;;5.63;3.30;;;;;;;-145.69;88.13;71551.63;5075231;28;20191;-76
2022/04/05 10:48:36;;;;;;;4.87;3.20;;;;;;;-145.69;88.77;71573.53;5075250;28;20195;-76
2022/04/05 10:51:12;;;;;;;7.37;3.30;;;;;;;-145.69;89.52;71545.66;5074897;28;20566;-75
2022/04/05 10:54:17;;;;;;;6.50;3.10;;;;;;;-145.69;88.48;71549.66;5075129;28;20206;-76
2022/04/05 10:56:35;;;;;;;5.80;3.00;;;;;;;-145.69;89.72;71585.47;5074730;28;20234;-76
2022/04/05 10:59:19;;;;;;;7.70;3.17;;;;;;;-145.69;91.57;71601.38;5074995;28;20210;-76
2022/04/05 11:01:46;;;;;;;6.23;3.27;;;;;;;-145.69;92.54;71567.56;5074881;28;20653;-76
2022/04/05 11:04:34;;;;;;;5.57;3.30;;;;;;;-145.69;90.55;71555.63;5074837;28;20202;-76
2022/04/05 11:07:13;;;;;;;5.27;2.77;;;;;;;-145.69;90.29;71537.72;5075101;28;20547;-76
2022/04/05 11:09:50;;;;;;;4.43;3.10;;;;;;;-145.69;91.01;71533.72;5074925;28;20302;-76
2022/04/05 11:12:20;;;;;;;7.10;3.20;;;;;;;-145.69;90.59;71485.97;5074786;28;20207;-76
2022/04/05 11:14:50;;;;;;;6.27;2.87;;;;;;;-145.69;90.44;71541.69;5074332;28;20629;-76
2022/04/05 11:17:19;;;;;;;4.67;2.77;;;;;;;-145.69;89.75;71517.81;5074515;28;20238;-76